sensor_id;sensor_type;location;lat;lon;timestamp;P1;durP1;ratioP1;P2;durP2;ratioP2
49840;SDS011;35738;49.890;5.930;2023-06-10T00:00:47;7.32;;;6.63;;
49840;SDS011;35738;49.890;5.930;2023-06-10T00:03:13;7.40;;;6.60;;
49840;SDS011;35738;49.890;5.930;2023-06-10T00:05:41;9.20;;;6.65;;
49840;SDS011;35738;49.890;5.930;2023-06-10T00:08:07;8.07;;;6.70;;
49840;SDS011;35738;49.890;5.930;2023-06-10T00:10:34;7.30;;;6.60;;
49840;SDS011;35738;49.890;5.930;2023-06-10T00:13:02;7.00;;;6.30;;
49840;SDS011;35738;49.890;5.930;2023-06-10T00:15:30;7.20;;;6.50;;
49840;SDS011;35738;49.890;5.930;2023-06-10T00:17:57;7.50;;;6.65;;
49840;SDS011;35738;49.890;5.930;2023-06-10T00:20:24;7.20;;;6.53;;
49840;SDS011;35738;49.890;5.930;2023-06-10T00:22:51;8.23;;;6.93;;
49840;SDS011;35738;49.890;5.930;2023-06-10T00:25:18;7.03;;;6.38;;
49840;SDS011;35738;49.890;5.930;2023-06-10T00:27:45;6.88;;;6.28;;
49840;SDS011;35738;49.890;5.930;2023-06-10T00:30:12;7.63;;;6.75;;
49840;SDS011;35738;49.890;5.930;2023-06-10T00:32:39;7.30;;;6.65;;
49840;SDS011;35738;49.890;5.930;2023-06-10T00:35:06;9.75;;;6.60;;
49840;SDS011;35738;49.890;5.930;2023-06-10T00:37:34;7.80;;;7.00;;
49840;SDS011;35738;49.890;5.930;2023-06-10T00:40:02;9.48;;;6.57;;
49840;SDS011;35738;49.890;5.930;2023-06-10T00:42:30;7.75;;;6.72;;
49840;SDS011;35738;49.890;5.930;2023-06-10T00:44:57;7.75;;;6.90;;
49840;SDS011;35738;49.890;5.930;2023-06-10T00:47:24;7.45;;;6.68;;
49840;SDS011;35738;49.890;5.930;2023-06-10T00:49:51;7.15;;;6.45;;
49840;SDS011;35738;49.890;5.930;2023-06-10T00:52:19;7.90;;;6.95;;
49840;SDS011;35738;49.890;5.930;2023-06-10T00:54:48;7.25;;;6.50;;
49840;SDS011;35738;49.890;5.930;2023-06-10T00:57:15;7.50;;;6.70;;
49840;SDS011;35738;49.890;5.930;2023-06-10T00:59:42;8.73;;;7.13;;
49840;SDS011;35738;49.890;5.930;2023-06-10T01:02:13;7.55;;;6.63;;
49840;SDS011;35738;49.890;5.930;2023-06-10T01:04:40;9.27;;;6.68;;
49840;SDS011;35738;49.890;5.930;2023-06-10T01:12:34;10.05;;;7.20;;
49840;SDS011;35738;49.890;5.930;2023-06-10T01:15:06;9.52;;;7.20;;
49840;SDS011;35738;49.890;5.930;2023-06-10T01:17:37;7.45;;;6.63;;
49840;SDS011;35738;49.890;5.930;2023-06-10T01:20:20;7.72;;;7.03;;
49840;SDS011;35738;49.890;5.930;2023-06-10T01:22:47;8.20;;;7.22;;
49840;SDS011;35738;49.890;5.930;2023-06-10T01:25:14;7.43;;;6.72;;
49840;SDS011;35738;49.890;5.930;2023-06-10T01:27:41;8.35;;;6.60;;
49840;SDS011;35738;49.890;5.930;2023-06-10T01:30:14;8.15;;;7.25;;
49840;SDS011;35738;49.890;5.930;2023-06-10T01:32:52;8.60;;;7.30;;
49840;SDS011;35738;49.890;5.930;2023-06-10T01:35:21;8.23;;;7.38;;
49840;SDS011;35738;49.890;5.930;2023-06-10T01:37:51;8.32;;;6.97;;
49840;SDS011;35738;49.890;5.930;2023-06-10T01:40:20;8.20;;;6.78;;
49840;SDS011;35738;49.890;5.930;2023-06-10T01:42:47;7.35;;;6.57;;
49840;SDS011;35738;49.890;5.930;2023-06-10T01:45:15;9.23;;;7.03;;
49840;SDS011;35738;49.890;5.930;2023-06-10T01:47:42;7.72;;;6.85;;
49840;SDS011;35738;49.890;5.930;2023-06-10T01:50:08;7.95;;;7.15;;
49840;SDS011;35738;49.890;5.930;2023-06-10T01:52:35;7.82;;;7.00;;
49840;SDS011;35738;49.890;5.930;2023-06-10T01:55:03;7.57;;;6.88;;
49840;SDS011;35738;49.890;5.930;2023-06-10T01:57:30;8.25;;;6.72;;
49840;SDS011;35738;49.890;5.930;2023-06-10T01:59:57;8.15;;;7.15;;
49840;SDS011;35738;49.890;5.930;2023-06-10T02:02:23;7.63;;;6.88;;
49840;SDS011;35738;49.890;5.930;2023-06-10T02:04:51;8.23;;;7.07;;
49840;SDS011;35738;49.890;5.930;2023-06-10T02:07:17;7.90;;;6.97;;
49840;SDS011;35738;49.890;5.930;2023-06-10T02:09:44;9.30;;;7.43;;
49840;SDS011;35738;49.890;5.930;2023-06-10T02:12:11;7.70;;;6.70;;
49840;SDS011;35738;49.890;5.930;2023-06-10T02:14:37;8.32;;;7.40;;
49840;SDS011;35738;49.890;5.930;2023-06-10T02:17:04;8.20;;;7.40;;
49840;SDS011;35738;49.890;5.930;2023-06-10T02:19:31;9.05;;;7.32;;
49840;SDS011;35738;49.890;5.930;2023-06-10T02:21:57;8.10;;;7.30;;
49840;SDS011;35738;49.890;5.930;2023-06-10T02:24:25;7.80;;;7.00;;
49840;SDS011;35738;49.890;5.930;2023-06-10T02:26:52;7.95;;;7.15;;
49840;SDS011;35738;49.890;5.930;2023-06-10T02:29:19;7.35;;;6.70;;
49840;SDS011;35738;49.890;5.930;2023-06-10T02:31:46;7.35;;;6.65;;
49840;SDS011;35738;49.890;5.930;2023-06-10T02:34:13;8.00;;;7.20;;
49840;SDS011;35738;49.890;5.930;2023-06-10T02:36:40;9.82;;;7.30;;
49840;SDS011;35738;49.890;5.930;2023-06-10T02:39:06;8.32;;;6.85;;
49840;SDS011;35738;49.890;5.930;2023-06-10T02:41:34;7.47;;;6.78;;
49840;SDS011;35738;49.890;5.930;2023-06-10T02:44:00;7.32;;;6.57;;
49840;SDS011;35738;49.890;5.930;2023-06-10T02:46:27;9.30;;;6.95;;
49840;SDS011;35738;49.890;5.930;2023-06-10T02:48:55;7.68;;;6.90;;
49840;SDS011;35738;49.890;5.930;2023-06-10T02:51:21;7.88;;;6.97;;
49840;SDS011;35738;49.890;5.930;2023-06-10T02:53:48;7.30;;;6.57;;
49840;SDS011;35738;49.890;5.930;2023-06-10T02:56:18;9.23;;;7.10;;
49840;SDS011;35738;49.890;5.930;2023-06-10T02:58:45;8.80;;;7.15;;
49840;SDS011;35738;49.890;5.930;2023-06-10T03:01:12;8.88;;;6.80;;
49840;SDS011;35738;49.890;5.930;2023-06-10T03:03:39;9.07;;;7.47;;
49840;SDS011;35738;49.890;5.930;2023-06-10T03:06:10;8.23;;;6.47;;
49840;SDS011;35738;49.890;5.930;2023-06-10T03:08:36;8.68;;;6.63;;
49840;SDS011;35738;49.890;5.930;2023-06-10T03:11:04;8.43;;;7.10;;
49840;SDS011;35738;49.890;5.930;2023-06-10T03:13:30;6.82;;;6.15;;
49840;SDS011;35738;49.890;5.930;2023-06-10T03:15:58;7.88;;;7.07;;
49840;SDS011;35738;49.890;5.930;2023-06-10T03:18:25;9.25;;;7.10;;
49840;SDS011;35738;49.890;5.930;2023-06-10T03:20:54;7.82;;;7.03;;
49840;SDS011;35738;49.890;5.930;2023-06-10T03:23:21;8.02;;;7.28;;
49840;SDS011;35738;49.890;5.930;2023-06-10T03:25:49;7.95;;;7.15;;
49840;SDS011;35738;49.890;5.930;2023-06-10T03:28:15;8.20;;;7.00;;
49840;SDS011;35738;49.890;5.930;2023-06-10T03:30:42;10.07;;;6.80;;
49840;SDS011;35738;49.890;5.930;2023-06-10T03:33:08;9.25;;;7.60;;
49840;SDS011;35738;49.890;5.930;2023-06-10T03:35:35;8.23;;;7.00;;
49840;SDS011;35738;49.890;5.930;2023-06-10T03:38:02;9.73;;;7.47;;
49840;SDS011;35738;49.890;5.930;2023-06-10T03:40:29;8.07;;;6.88;;
49840;SDS011;35738;49.890;5.930;2023-06-10T03:42:57;7.70;;;6.90;;
49840;SDS011;35738;49.890;5.930;2023-06-10T03:45:24;8.77;;;6.72;;
49840;SDS011;35738;49.890;5.930;2023-06-10T03:47:51;9.15;;;6.90;;
49840;SDS011;35738;49.890;5.930;2023-06-10T03:50:17;7.85;;;6.88;;
49840;SDS011;35738;49.890;5.930;2023-06-10T03:52:44;8.05;;;6.97;;
49840;SDS011;35738;49.890;5.930;2023-06-10T03:55:12;7.80;;;6.60;;
49840;SDS011;35738;49.890;5.930;2023-06-10T03:57:39;7.72;;;6.50;;
49840;SDS011;35738;49.890;5.930;2023-06-10T04:00:06;7.30;;;6.60;;
49840;SDS011;35738;49.890;5.930;2023-06-10T04:02:39;10.95;;;6.70;;
49840;SDS011;35738;49.890;5.930;2023-06-10T04:05:13;7.78;;;6.80;;
49840;SDS011;35738;49.890;5.930;2023-06-10T04:07:40;7.55;;;6.60;;
49840;SDS011;35738;49.890;5.930;2023-06-10T04:10:09;7.07;;;6.38;;
49840;SDS011;35738;49.890;5.930;2023-06-10T04:12:38;7.70;;;6.90;;
49840;SDS011;35738;49.890;5.930;2023-06-10T04:15:05;7.35;;;6.55;;
49840;SDS011;35738;49.890;5.930;2023-06-10T04:17:33;7.53;;;6.65;;
49840;SDS011;35738;49.890;5.930;2023-06-10T04:20:01;8.63;;;7.43;;
49840;SDS011;35738;49.890;5.930;2023-06-10T04:22:27;7.10;;;6.40;;
49840;SDS011;35738;49.890;5.930;2023-06-10T04:24:54;8.63;;;6.90;;
49840;SDS011;35738;49.890;5.930;2023-06-10T04:27:21;8.65;;;6.65;;
49840;SDS011;35738;49.890;5.930;2023-06-10T04:29:47;8.60;;;6.57;;
49840;SDS011;35738;49.890;5.930;2023-06-10T04:32:14;7.57;;;6.75;;
49840;SDS011;35738;49.890;5.930;2023-06-10T04:34:41;7.57;;;6.60;;
49840;SDS011;35738;49.890;5.930;2023-06-10T04:37:08;8.07;;;7.10;;
49840;SDS011;35738;49.890;5.930;2023-06-10T04:39:35;8.00;;;6.50;;
49840;SDS011;35738;49.890;5.930;2023-06-10T04:42:04;7.22;;;6.53;;
49840;SDS011;35738;49.890;5.930;2023-06-10T04:44:32;7.05;;;6.35;;
49840;SDS011;35738;49.890;5.930;2023-06-10T04:46:58;8.10;;;6.63;;
49840;SDS011;35738;49.890;5.930;2023-06-10T04:49:25;8.45;;;7.13;;
49840;SDS011;35738;49.890;5.930;2023-06-10T04:51:51;7.55;;;6.65;;
49840;SDS011;35738;49.890;5.930;2023-06-10T04:54:18;9.75;;;6.65;;
49840;SDS011;35738;49.890;5.930;2023-06-10T04:56:45;8.60;;;6.35;;
49840;SDS011;35738;49.890;5.930;2023-06-10T04:59:11;8.60;;;6.57;;
49840;SDS011;35738;49.890;5.930;2023-06-10T05:01:38;7.75;;;6.38;;
49840;SDS011;35738;49.890;5.930;2023-06-10T05:04:05;8.40;;;7.00;;
49840;SDS011;35738;49.890;5.930;2023-06-10T05:06:31;7.78;;;6.50;;
49840;SDS011;35738;49.890;5.930;2023-06-10T05:08:58;7.03;;;6.32;;
49840;SDS011;35738;49.890;5.930;2023-06-10T05:11:24;8.93;;;6.95;;
49840;SDS011;35738;49.890;5.930;2023-06-10T05:13:51;10.25;;;6.68;;
49840;SDS011;35738;49.890;5.930;2023-06-10T05:16:17;7.60;;;6.82;;
49840;SDS011;35738;49.890;5.930;2023-06-10T05:18:44;8.60;;;6.85;;
49840;SDS011;35738;49.890;5.930;2023-06-10T05:21:11;7.78;;;6.47;;
49840;SDS011;35738;49.890;5.930;2023-06-10T05:23:38;7.18;;;6.20;;
49840;SDS011;35738;49.890;5.930;2023-06-10T05:26:04;8.20;;;6.60;;
49840;SDS011;35738;49.890;5.930;2023-06-10T05:28:31;8.95;;;6.28;;
49840;SDS011;35738;49.890;5.930;2023-06-10T05:30:57;7.00;;;6.30;;
49840;SDS011;35738;49.890;5.930;2023-06-10T05:33:24;7.18;;;6.47;;
49840;SDS011;35738;49.890;5.930;2023-06-10T05:35:50;8.70;;;6.53;;
49840;SDS011;35738;49.890;5.930;2023-06-10T05:38:17;7.35;;;6.65;;
49840;SDS011;35738;49.890;5.930;2023-06-10T05:40:44;7.65;;;6.07;;
49840;SDS011;35738;49.890;5.930;2023-06-10T05:43:10;6.57;;;5.97;;
49840;SDS011;35738;49.890;5.930;2023-06-10T05:45:37;6.13;;;5.63;;
49840;SDS011;35738;49.890;5.930;2023-06-10T05:48:04;6.63;;;6.03;;
49840;SDS011;35738;49.890;5.930;2023-06-10T05:50:31;7.47;;;6.50;;
49840;SDS011;35738;49.890;5.930;2023-06-10T05:53:04;6.88;;;6.03;;
49840;SDS011;35738;49.890;5.930;2023-06-10T05:55:33;6.85;;;6.00;;
49840;SDS011;35738;49.890;5.930;2023-06-10T05:57:59;8.65;;;6.25;;
49840;SDS011;35738;49.890;5.930;2023-06-10T06:00:26;6.45;;;5.90;;
49840;SDS011;35738;49.890;5.930;2023-06-10T06:02:53;7.18;;;6.47;;
49840;SDS011;35738;49.890;5.930;2023-06-10T06:05:21;7.50;;;6.32;;
49840;SDS011;35738;49.890;5.930;2023-06-10T06:07:47;6.53;;;6.00;;
49840;SDS011;35738;49.890;5.930;2023-06-10T06:10:14;7.32;;;5.85;;
49840;SDS011;35738;49.890;5.930;2023-06-10T06:12:42;6.88;;;5.60;;
49840;SDS011;35738;49.890;5.930;2023-06-10T06:15:10;6.95;;;5.78;;
49840;SDS011;35738;49.890;5.930;2023-06-10T06:17:37;8.20;;;6.00;;
49840;SDS011;35738;49.890;5.930;2023-06-10T06:20:04;6.55;;;5.68;;
49840;SDS011;35738;49.890;5.930;2023-06-10T06:22:31;6.90;;;5.88;;
49840;SDS011;35738;49.890;5.930;2023-06-10T06:24:58;6.60;;;5.90;;
49840;SDS011;35738;49.890;5.930;2023-06-10T06:27:24;6.35;;;5.75;;
49840;SDS011;35738;49.890;5.930;2023-06-10T06:29:51;6.95;;;6.10;;
49840;SDS011;35738;49.890;5.930;2023-06-10T06:32:18;6.40;;;5.80;;
49840;SDS011;35738;49.890;5.930;2023-06-10T06:34:45;6.88;;;6.03;;
49840;SDS011;35738;49.890;5.930;2023-06-10T06:37:12;6.13;;;5.53;;
49840;SDS011;35738;49.890;5.930;2023-06-10T06:39:39;6.78;;;6.10;;
49840;SDS011;35738;49.890;5.930;2023-06-10T06:42:05;6.55;;;5.88;;
49840;SDS011;35738;49.890;5.930;2023-06-10T06:44:32;6.22;;;5.65;;
49840;SDS011;35738;49.890;5.930;2023-06-10T06:46:59;6.43;;;5.90;;
49840;SDS011;35738;49.890;5.930;2023-06-10T06:49:26;6.57;;;5.80;;
49840;SDS011;35738;49.890;5.930;2023-06-10T06:51:53;6.30;;;5.70;;
49840;SDS011;35738;49.890;5.930;2023-06-10T06:54:20;7.05;;;5.55;;
49840;SDS011;35738;49.890;5.930;2023-06-10T06:56:46;5.85;;;5.30;;
49840;SDS011;35738;49.890;5.930;2023-06-10T06:59:13;5.47;;;4.97;;
49840;SDS011;35738;49.890;5.930;2023-06-10T07:01:41;6.45;;;5.15;;
49840;SDS011;35738;49.890;5.930;2023-06-10T07:04:08;7.93;;;5.40;;
49840;SDS011;35738;49.890;5.930;2023-06-10T07:06:35;5.70;;;5.20;;
49840;SDS011;35738;49.890;5.930;2023-06-10T07:09:04;5.50;;;5.00;;
49840;SDS011;35738;49.890;5.930;2023-06-10T07:11:31;5.57;;;5.07;;
49840;SDS011;35738;49.890;5.930;2023-06-10T07:13:58;5.32;;;4.82;;
49840;SDS011;35738;49.890;5.930;2023-06-10T07:16:24;5.13;;;4.63;;
49840;SDS011;35738;49.890;5.930;2023-06-10T07:18:52;5.30;;;4.82;;
49840;SDS011;35738;49.890;5.930;2023-06-10T07:21:19;5.43;;;4.93;;
49840;SDS011;35738;49.890;5.930;2023-06-10T07:23:45;5.10;;;4.70;;
49840;SDS011;35738;49.890;5.930;2023-06-10T07:26:12;5.00;;;4.43;;
49840;SDS011;35738;49.890;5.930;2023-06-10T07:28:40;5.68;;;5.18;;
49840;SDS011;35738;49.890;5.930;2023-06-10T07:31:07;5.40;;;4.90;;
49840;SDS011;35738;49.890;5.930;2023-06-10T07:33:35;6.85;;;5.07;;
49840;SDS011;35738;49.890;5.930;2023-06-10T07:36:03;5.75;;;4.55;;
49840;SDS011;35738;49.890;5.930;2023-06-10T07:38:29;5.18;;;4.65;;
49840;SDS011;35738;49.890;5.930;2023-06-10T07:40:56;4.93;;;4.53;;
49840;SDS011;35738;49.890;5.930;2023-06-10T07:43:23;5.47;;;4.97;;
49840;SDS011;35738;49.890;5.930;2023-06-10T07:45:50;5.18;;;4.75;;
49840;SDS011;35738;49.890;5.930;2023-06-10T07:48:17;5.35;;;4.85;;
49840;SDS011;35738;49.890;5.930;2023-06-10T07:50:44;5.45;;;4.95;;
49840;SDS011;35738;49.890;5.930;2023-06-10T07:53:11;5.10;;;4.65;;
49840;SDS011;35738;49.890;5.930;2023-06-10T07:55:37;5.22;;;4.80;;
49840;SDS011;35738;49.890;5.930;2023-06-10T07:58:04;5.82;;;5.22;;
49840;SDS011;35738;49.890;5.930;2023-06-10T08:00:31;5.07;;;4.68;;
49840;SDS011;35738;49.890;5.930;2023-06-10T08:02:57;5.20;;;4.70;;
49840;SDS011;35738;49.890;5.930;2023-06-10T08:05:24;5.43;;;4.75;;
49840;SDS011;35738;49.890;5.930;2023-06-10T08:07:51;5.05;;;4.63;;
49840;SDS011;35738;49.890;5.930;2023-06-10T08:10:17;5.82;;;5.20;;
49840;SDS011;35738;49.890;5.930;2023-06-10T08:12:44;7.70;;;5.13;;
49840;SDS011;35738;49.890;5.930;2023-06-10T08:15:10;6.13;;;4.80;;
49840;SDS011;35738;49.890;5.930;2023-06-10T08:17:37;5.20;;;4.70;;
49840;SDS011;35738;49.890;5.930;2023-06-10T08:20:06;5.47;;;4.97;;
49840;SDS011;35738;49.890;5.930;2023-06-10T08:22:33;5.75;;;4.65;;
49840;SDS011;35738;49.890;5.930;2023-06-10T08:25:00;5.68;;;5.18;;
49840;SDS011;35738;49.890;5.930;2023-06-10T08:27:26;5.75;;;5.25;;
49840;SDS011;35738;49.890;5.930;2023-06-10T08:29:53;5.40;;;4.90;;
49840;SDS011;35738;49.890;5.930;2023-06-10T08:32:20;6.15;;;5.10;;
49840;SDS011;35738;49.890;5.930;2023-06-10T08:34:46;4.90;;;4.50;;
49840;SDS011;35738;49.890;5.930;2023-06-10T08:37:13;5.38;;;4.93;;
49840;SDS011;35738;49.890;5.930;2023-06-10T08:39:40;5.50;;;5.00;;
49840;SDS011;35738;49.890;5.930;2023-06-10T08:42:22;6.32;;;4.93;;
49840;SDS011;35738;49.890;5.930;2023-06-10T08:44:54;6.15;;;5.28;;
49840;SDS011;35738;49.890;5.930;2023-06-10T08:47:29;5.13;;;4.55;;
49840;SDS011;35738;49.890;5.930;2023-06-10T08:50:02;5.95;;;5.15;;
49840;SDS011;35738;49.890;5.930;2023-06-10T08:52:36;5.88;;;5.38;;
49840;SDS011;35738;49.890;5.930;2023-06-10T08:55:11;5.85;;;5.30;;
49840;SDS011;35738;49.890;5.930;2023-06-10T08:57:41;6.15;;;5.25;;
49840;SDS011;35738;49.890;5.930;2023-06-10T09:00:09;5.90;;;5.30;;
49840;SDS011;35738;49.890;5.930;2023-06-10T09:02:37;6.10;;;5.47;;
49840;SDS011;35738;49.890;5.930;2023-06-10T09:05:05;5.95;;;5.35;;
49840;SDS011;35738;49.890;5.930;2023-06-10T09:07:32;5.82;;;5.35;;
49840;SDS011;35738;49.890;5.930;2023-06-10T09:10:01;6.72;;;5.70;;
49840;SDS011;35738;49.890;5.930;2023-06-10T09:12:30;6.55;;;5.65;;
49840;SDS011;35738;49.890;5.930;2023-06-10T09:14:56;6.35;;;5.75;;
49840;SDS011;35738;49.890;5.930;2023-06-10T09:17:24;6.03;;;4.93;;
49840;SDS011;35738;49.890;5.930;2023-06-10T09:19:51;6.95;;;5.55;;
49840;SDS011;35738;49.890;5.930;2023-06-10T09:22:20;5.85;;;5.35;;
49840;SDS011;35738;49.890;5.930;2023-06-10T09:24:47;6.57;;;5.70;;
49840;SDS011;35738;49.890;5.930;2023-06-10T09:27:14;6.38;;;5.35;;
49840;SDS011;35738;49.890;5.930;2023-06-10T09:30:00;7.00;;;5.53;;
49840;SDS011;35738;49.890;5.930;2023-06-10T09:32:26;5.40;;;4.90;;
49840;SDS011;35738;49.890;5.930;2023-06-10T09:34:54;5.97;;;5.45;;
49840;SDS011;35738;49.890;5.930;2023-06-10T09:37:21;10.52;;;5.30;;
49840;SDS011;35738;49.890;5.930;2023-06-10T09:40:04;8.65;;;5.35;;
49840;SDS011;35738;49.890;5.930;2023-06-10T09:42:33;6.18;;;5.43;;
49840;SDS011;35738;49.890;5.930;2023-06-10T09:45:02;11.45;;;5.25;;
49840;SDS011;35738;49.890;5.930;2023-06-10T09:47:29;7.95;;;5.32;;
49840;SDS011;35738;49.890;5.930;2023-06-10T09:49:57;7.97;;;5.28;;
49840;SDS011;35738;49.890;5.930;2023-06-10T09:52:24;12.15;;;5.60;;
49840;SDS011;35738;49.890;5.930;2023-06-10T09:54:52;5.95;;;5.20;;
49840;SDS011;35738;49.890;5.930;2023-06-10T09:57:21;5.20;;;4.80;;
49840;SDS011;35738;49.890;5.930;2023-06-10T09:59:48;6.13;;;5.15;;
49840;SDS011;35738;49.890;5.930;2023-06-10T10:02:21;5.35;;;4.80;;
49840;SDS011;35738;49.890;5.930;2023-06-10T10:04:48;6.65;;;5.03;;
49840;SDS011;35738;49.890;5.930;2023-06-10T10:07:15;5.53;;;5.03;;
49840;SDS011;35738;49.890;5.930;2023-06-10T10:09:42;7.90;;;5.53;;
49840;SDS011;35738;49.890;5.930;2023-06-10T10:12:10;5.15;;;4.75;;
49840;SDS011;35738;49.890;5.930;2023-06-10T10:14:39;5.43;;;5.00;;
49840;SDS011;35738;49.890;5.930;2023-06-10T10:17:10;5.43;;;4.90;;
49840;SDS011;35738;49.890;5.930;2023-06-10T10:19:43;5.88;;;4.97;;
49840;SDS011;35738;49.890;5.930;2023-06-10T10:22:25;5.75;;;4.78;;
49840;SDS011;35738;49.890;5.930;2023-06-10T10:24:57;5.07;;;4.65;;
49840;SDS011;35738;49.890;5.930;2023-06-10T10:27:28;5.30;;;4.80;;
49840;SDS011;35738;49.890;5.930;2023-06-10T10:29:59;6.00;;;5.43;;
49840;SDS011;35738;49.890;5.930;2023-06-10T10:32:42;6.22;;;4.70;;
49840;SDS011;35738;49.890;5.930;2023-06-10T10:35:21;5.32;;;4.80;;
49840;SDS011;35738;49.890;5.930;2023-06-10T10:37:53;5.03;;;4.57;;
49840;SDS011;35738;49.890;5.930;2023-06-10T10:40:21;5.53;;;4.65;;
49840;SDS011;35738;49.890;5.930;2023-06-10T10:42:49;6.13;;;4.68;;
49840;SDS011;35738;49.890;5.930;2023-06-10T10:45:17;5.72;;;5.20;;
49840;SDS011;35738;49.890;5.930;2023-06-10T10:47:44;5.28;;;4.75;;
49840;SDS011;35738;49.890;5.930;2023-06-10T10:50:16;5.10;;;4.60;;
49840;SDS011;35738;49.890;5.930;2023-06-10T10:55:19;4.75;;;4.32;;
49840;SDS011;35738;49.890;5.930;2023-06-10T10:57:53;4.90;;;4.50;;
49840;SDS011;35738;49.890;5.930;2023-06-10T11:00:33;5.13;;;4.63;;
49840;SDS011;35738;49.890;5.930;2023-06-10T11:03:15;5.43;;;4.85;;
49840;SDS011;35738;49.890;5.930;2023-06-10T11:05:46;5.72;;;5.22;;
49840;SDS011;35738;49.890;5.930;2023-06-10T11:08:16;4.90;;;4.45;;
49840;SDS011;35738;49.890;5.930;2023-06-10T11:11:18;5.25;;;4.63;;
49840;SDS011;35738;49.890;5.930;2023-06-10T11:14:05;6.13;;;5.35;;
49840;SDS011;35738;49.890;5.930;2023-06-10T11:16:42;5.45;;;4.63;;
49840;SDS011;35738;49.890;5.930;2023-06-10T11:19:10;5.07;;;4.68;;
49840;SDS011;35738;49.890;5.930;2023-06-10T11:22:01;5.50;;;5.00;;
49840;SDS011;35738;49.890;5.930;2023-06-10T11:24:30;5.30;;;4.80;;
49840;SDS011;35738;49.890;5.930;2023-06-10T11:32:30;5.45;;;4.95;;
49840;SDS011;35738;49.890;5.930;2023-06-10T11:34:59;5.10;;;4.68;;
49840;SDS011;35738;49.890;5.930;2023-06-10T11:37:26;6.60;;;4.90;;
49840;SDS011;35738;49.890;5.930;2023-06-10T11:39:54;5.47;;;4.90;;
49840;SDS011;35738;49.890;5.930;2023-06-10T11:42:22;5.85;;;5.07;;
49840;SDS011;35738;49.890;5.930;2023-06-10T11:44:50;6.47;;;5.18;;
49840;SDS011;35738;49.890;5.930;2023-06-10T11:47:18;6.25;;;5.40;;
49840;SDS011;35738;49.890;5.930;2023-06-10T11:49:45;5.75;;;5.25;;
49840;SDS011;35738;49.890;5.930;2023-06-10T11:52:28;5.95;;;5.30;;
49840;SDS011;35738;49.890;5.930;2023-06-10T11:54:56;6.38;;;5.10;;
49840;SDS011;35738;49.890;5.930;2023-06-10T11:57:22;5.28;;;4.88;;
49840;SDS011;35738;49.890;5.930;2023-06-10T11:59:49;5.45;;;4.90;;
49840;SDS011;35738;49.890;5.930;2023-06-10T12:02:16;5.65;;;5.15;;
49840;SDS011;35738;49.890;5.930;2023-06-10T12:04:45;5.55;;;5.05;;
49840;SDS011;35738;49.890;5.930;2023-06-10T12:07:18;5.57;;;5.03;;
49840;SDS011;35738;49.890;5.930;2023-06-10T12:09:46;6.07;;;5.00;;
49840;SDS011;35738;49.890;5.930;2023-06-10T12:12:13;5.32;;;4.82;;
49840;SDS011;35738;49.890;5.930;2023-06-10T12:14:52;5.60;;;5.10;;
49840;SDS011;35738;49.890;5.930;2023-06-10T12:17:22;6.07;;;5.47;;
49840;SDS011;35738;49.890;5.930;2023-06-10T12:20:24;5.85;;;5.30;;
49840;SDS011;35738;49.890;5.930;2023-06-10T12:22:51;5.78;;;5.25;;
49840;SDS011;35738;49.890;5.930;2023-06-10T12:25:23;6.05;;;5.45;;
49840;SDS011;35738;49.890;5.930;2023-06-10T12:27:52;5.80;;;5.18;;
49840;SDS011;35738;49.890;5.930;2023-06-10T12:30:20;7.90;;;5.35;;
49840;SDS011;35738;49.890;5.930;2023-06-10T12:32:49;6.00;;;5.40;;
49840;SDS011;35738;49.890;5.930;2023-06-10T12:35:17;5.70;;;5.20;;
49840;SDS011;35738;49.890;5.930;2023-06-10T12:37:55;5.97;;;5.47;;
49840;SDS011;35738;49.890;5.930;2023-06-10T12:40:29;5.90;;;5.40;;
49840;SDS011;35738;49.890;5.930;2023-06-10T12:42:58;6.60;;;5.90;;
49840;SDS011;35738;49.890;5.930;2023-06-10T12:45:26;6.30;;;5.70;;
49840;SDS011;35738;49.890;5.930;2023-06-10T12:50:50;6.05;;;5.55;;
49840;SDS011;35738;49.890;5.930;2023-06-10T12:53:21;7.00;;;5.43;;
49840;SDS011;35738;49.890;5.930;2023-06-10T12:55:55;6.25;;;5.30;;
49840;SDS011;35738;49.890;5.930;2023-06-10T12:58:22;5.60;;;5.20;;
49840;SDS011;35738;49.890;5.930;2023-06-10T13:00:49;5.43;;;4.93;;
49840;SDS011;35738;49.890;5.930;2023-06-10T13:03:18;5.82;;;5.00;;
49840;SDS011;35738;49.890;5.930;2023-06-10T13:05:45;6.32;;;5.30;;
49840;SDS011;35738;49.890;5.930;2023-06-10T13:08:12;6.05;;;5.47;;
49840;SDS011;35738;49.890;5.930;2023-06-10T13:10:39;5.20;;;4.70;;
49840;SDS011;35738;49.890;5.930;2023-06-10T13:13:05;7.20;;;5.28;;
49840;SDS011;35738;49.890;5.930;2023-06-10T13:15:34;5.10;;;4.70;;
49840;SDS011;35738;49.890;5.930;2023-06-10T13:18:09;5.05;;;4.65;;
49840;SDS011;35738;49.890;5.930;2023-06-10T13:20:35;7.03;;;4.63;;
49840;SDS011;35738;49.890;5.930;2023-06-10T13:23:02;5.25;;;4.78;;
49840;SDS011;35738;49.890;5.930;2023-06-10T13:25:29;4.53;;;4.13;;
49840;SDS011;35738;49.890;5.930;2023-06-10T13:27:55;4.50;;;4.10;;
49840;SDS011;35738;49.890;5.930;2023-06-10T13:30:22;4.82;;;4.32;;
49840;SDS011;35738;49.890;5.930;2023-06-10T13:32:49;6.00;;;4.40;;
49840;SDS011;35738;49.890;5.930;2023-06-10T13:35:16;4.65;;;4.25;;
49840;SDS011;35738;49.890;5.930;2023-06-10T13:37:43;4.25;;;3.85;;
49840;SDS011;35738;49.890;5.930;2023-06-10T13:40:09;4.40;;;4.00;;
49840;SDS011;35738;49.890;5.930;2023-06-10T13:42:36;4.78;;;3.60;;
49840;SDS011;35738;49.890;5.930;2023-06-10T13:45:04;4.13;;;3.75;;
49840;SDS011;35738;49.890;5.930;2023-06-10T13:47:32;4.70;;;4.00;;
49840;SDS011;35738;49.890;5.930;2023-06-10T13:49:58;3.92;;;3.60;;
49840;SDS011;35738;49.890;5.930;2023-06-10T13:52:25;4.10;;;3.70;;
49840;SDS011;35738;49.890;5.930;2023-06-10T13:54:51;4.38;;;3.90;;
49840;SDS011;35738;49.890;5.930;2023-06-10T13:57:18;5.53;;;3.70;;
49840;SDS011;35738;49.890;5.930;2023-06-10T13:59:45;3.83;;;3.47;;
49840;SDS011;35738;49.890;5.930;2023-06-10T14:02:11;4.68;;;4.22;;
49840;SDS011;35738;49.890;5.930;2023-06-10T14:04:38;3.65;;;3.40;;
49840;SDS011;35738;49.890;5.930;2023-06-10T14:07:04;3.78;;;3.45;;
49840;SDS011;35738;49.890;5.930;2023-06-10T14:09:31;4.28;;;3.92;;
49840;SDS011;35738;49.890;5.930;2023-06-10T14:11:58;4.10;;;3.75;;
49840;SDS011;35738;49.890;5.930;2023-06-10T14:14:24;4.30;;;3.90;;
49840;SDS011;35738;49.890;5.930;2023-06-10T14:16:51;3.80;;;3.50;;
49840;SDS011;35738;49.890;5.930;2023-06-10T14:19:18;4.22;;;3.80;;
49840;SDS011;35738;49.890;5.930;2023-06-10T14:21:44;4.20;;;3.80;;
49840;SDS011;35738;49.890;5.930;2023-06-10T14:24:11;3.75;;;3.45;;
49840;SDS011;35738;49.890;5.930;2023-06-10T14:26:38;4.18;;;3.78;;
49840;SDS011;35738;49.890;5.930;2023-06-10T14:29:04;3.53;;;3.33;;
49840;SDS011;35738;49.890;5.930;2023-06-10T14:31:31;4.68;;;3.70;;
49840;SDS011;35738;49.890;5.930;2023-06-10T14:33:58;4.05;;;3.35;;
49840;SDS011;35738;49.890;5.930;2023-06-10T14:36:25;3.92;;;3.63;;
49840;SDS011;35738;49.890;5.930;2023-06-10T14:38:51;5.65;;;3.97;;
49840;SDS011;35738;49.890;5.930;2023-06-10T14:41:18;3.90;;;3.60;;
49840;SDS011;35738;49.890;5.930;2023-06-10T14:43:44;4.07;;;3.72;;
49840;SDS011;35738;49.890;5.930;2023-06-10T14:46:17;4.97;;;3.92;;
49840;SDS011;35738;49.890;5.930;2023-06-10T14:48:55;4.20;;;3.90;;
49840;SDS011;35738;49.890;5.930;2023-06-10T14:51:22;3.95;;;3.65;;
49840;SDS011;35738;49.890;5.930;2023-06-10T14:53:53;4.50;;;3.83;;
49840;SDS011;35738;49.890;5.930;2023-06-10T14:56:35;4.80;;;3.70;;
49840;SDS011;35738;49.890;5.930;2023-06-10T14:59:03;5.75;;;4.00;;
49840;SDS011;35738;49.890;5.930;2023-06-10T15:01:31;3.85;;;3.55;;
49840;SDS011;35738;49.890;5.930;2023-06-10T15:04:25;5.45;;;3.88;;
49840;SDS011;35738;49.890;5.930;2023-06-10T15:07:18;4.25;;;3.92;;
49840;SDS011;35738;49.890;5.930;2023-06-10T15:09:50;3.85;;;3.60;;
49840;SDS011;35738;49.890;5.930;2023-06-10T15:12:26;4.10;;;3.80;;